Latest Weather Observations for Glen Innes Airport

IDN60801

Issued at 6:02 am EDT Sunday 21 October 2018 (issued every 10 minutes, with the page automatically refreshed every 10 minutes)

About weather observations | Map of weather stations | Latest weather observations for NSW | Other Formats
Station Details ID: 056243 Name: GLEN INNES AIRPORT AWS Lat: -29.68 Lon: 151.69 Height: 1044.3 m
Data from the previous 72 hours. | See also: Recent months at Glen Innes Airport
Date/Time
EDT
Temp
°C
App
Temp
°C
Dew
Point
°C
Rel
Hum
%
Delta-T
°C
Wind Press
QNH
hPa
Press
MSL
hPa
Rain since
9am
mm
Dir  Spd
km/h
Gust
km/h
Spd
kts
Gust
kts
21/06:00am 12.4 10.6 11.0 91 0.8 SW 11 13 6 7 1017.1 1014.2 2.8
21/05:30am 12.3 10.9 10.9 91 0.8 WSW 9 13 5 7 1016.6 1013.7 2.8
21/05:00am 12.2 10.8 10.8 91 0.8 SSE 9 9 5 5 1015.5 1012.6 2.8
21/04:48am 12.5 11.2 11.1 91 0.8 SW 9 9 5 5 1015.5 1012.6 2.8
21/04:30am 12.8 12.4 11.2 90 0.9 W 4 15 2 8 1015.4 1012.5 2.8
21/04:19am 13.0 10.7 11.6 91 0.8 W 15 19 8 10 1015.7 1012.8 2.8
21/04:00am 12.9 10.8 11.3 90 0.9 E 13 20 7 11 1014.4 1011.5 2.8
21/03:30am 12.9 10.1 11.5 91 0.8 ESE 17 20 9 11 1015.3 1012.4 2.8
21/03:00am 12.9 10.5 11.5 91 0.8 ESE 15 20 8 11 1016.1 1013.2 2.8
21/02:30am 13.0 10.3 11.7 92 0.7 ENE 17 20 9 11 1016.8 1014.0 2.6
21/02:00am 13.3 13.8 11.5 89 1.0 CALM 0 6 0 3 1018.3 1015.4 1.6
21/01:30am 13.4 12.5 11.3 87 1.2 NNW 7 9 4 5 1018.6 1015.8 0.6
21/01:00am 13.9 12.6 11.4 85 1.4 W 9 13 5 7 1018.9 1016.1 0.2
21/12:30am 14.3 13.4 11.5 83 1.6 W 7 9 4 5 1019.3 1016.5 0.0
21/12:00am 14.4 13.6 11.0 80 1.9 W 6 11 3 6 1019.4 1016.6 0.0
 
Date/Time
EDT
Temp
°C
App
Temp
°C
Dew
Point
°C
Rel
Hum
%
Delta-T
°C
Wind Press
QNH
hPa
Press
MSL
hPa
Rain since
9am
mm
Dir  Spd
km/h
Gust
km/h
Spd
kts
Gust
kts
20/11:30pm 14.7 11.7 10.7 77 2.2 WSW 17 24 9 13 1019.4 1016.6 0.0
20/11:00pm 15.3 11.3 10.5 73 2.7 SW 22 28 12 15 1019.5 1016.7 0.0
20/10:30pm 15.6 11.3 10.8 73 2.7 WSW 24 35 13 19 1019.6 1016.8 0.0
20/10:00pm 15.9 12.1 11.1 73 2.7 WSW 22 30 12 16 1019.5 1016.7 0.0
20/09:30pm 16.3 11.4 11.2 72 2.9 WSW 28 39 15 21 1019.6 1016.8 0.0
20/09:00pm 17.7 12.3 12.2 70 3.2 W 32 46 17 25 1019.1 1016.2 0.0
20/08:53pm 17.6 15.3 11.9 69 3.3 NNW 15 44 8 24 1018.8 1016.0 0.0
20/08:30pm 16.6 15.4 11.7 73 2.8 NE 9 13 5 7 1017.8 1015.0 0.0
20/08:00pm 18.3 18.5 10.7 61 4.3 CALM 0 0 0 0 1017.1 1014.2 0.0
20/07:30pm 18.6 17.6 10.9 61 4.4 N 7 11 4 6 1016.7 1013.9 0.0
20/07:00pm 19.7 17.5 10.9 57 5.0 N 13 20 7 11 1016.6 1013.7 0.0
20/06:30pm 21.2 19.8 12.1 56 5.4 WNW 11 15 6 8 1016.8 1014.0 0.0
20/06:00pm 22.0 20.0 11.4 51 6.2 W 13 19 7 10 1016.6 1013.7 0.0
20/05:30pm 22.7 21.1 11.4 49 6.6 NW 11 17 6 9 1016.2 1013.3 0.0
20/05:00pm 23.4 21.8 10.1 43 7.6 WSW 9 17 5 9 1016.0 1013.1 0.0
20/04:30pm 24.7 22.4 9.0 37 8.9 WNW 11 19 6 10 1015.7 1012.8 0.0
20/04:00pm 24.5 22.7 10.8 42 8.0 WNW 11 17 6 9 1016.2 1013.3 0.0
20/03:30pm 24.6 22.6 11.5 44 7.8 WNW 13 22 7 12 1016.7 1013.9 0.0
20/03:00pm 24.4 21.1 11.0 43 7.9 W 19 24 10 13 1017.5 1014.6 0.0
20/02:30pm 24.0 21.1 11.0 44 7.6 W 17 24 9 13 1018.1 1015.2 0.0
20/02:00pm 23.2 21.1 9.6 42 7.7 W 11 19 6 10 1018.4 1015.5 0.0
20/01:30pm 23.1 21.8 11.2 47 7.0 SW 9 13 5 7 1018.9 1016.1 0.0
20/01:00pm 22.3 20.1 10.8 48 6.6 W 13 17 7 9 1019.3 1016.5 0.0
20/12:30pm 22.8 21.2 12.7 53 6.1 W 13 20 7 11 1019.6 1016.8 0.0
20/12:00pm 22.5 21.3 12.7 54 5.9 W 11 17 6 9 1019.8 1017.0 0.0
20/11:30am 21.9 21.3 13.5 59 5.1 NNW 9 17 5 9 1019.9 1017.1 0.0
20/11:00am 21.4 19.9 13.1 59 5.0 NW 13 20 7 11 1020.5 1017.7 0.0
20/10:30am 20.5 18.9 13.9 66 4.0 NNW 15 20 8 11 1020.9 1018.1 0.0
20/10:00am 19.9 18.6 14.7 72 3.2 WNW 15 20 8 11 1021.3 1018.5 0.0
20/09:30am 18.7 17.5 14.0 74 2.8 NW 13 17 7 9 1021.5 1018.7 0.0
20/09:00am 17.3 17.1 13.0 76 2.5 NNE 6 13 3 7 1021.5 1018.7 1.4
20/08:30am 16.4 15.9 13.9 85 1.5 E 9 13 5 7 1021.4 1018.6 1.4
20/08:00am 15.2 14.1 13.2 88 1.2 ESE 11 13 6 7 1021.3 1018.5 1.4
20/07:30am 14.2 13.0 12.9 92 0.8 ESE 11 13 6 7 1020.9 1018.1 1.4
20/07:00am 13.3 12.3 12.4 94 0.5 ESE 9 11 5 6 1020.9 1018.1 1.4
20/06:30am 12.1 10.8 11.2 94 0.5 ESE 9 11 5 6 1020.7 1017.9 1.4
20/06:00am 12.1 11.1 11.0 93 0.6 ESE 7 11 4 6 1020.6 1017.8 1.4
20/05:30am 12.3 11.0 11.2 93 0.6 ESE 9 11 5 6 1020.4 1017.6 1.4
20/05:15am 12.2 10.8 10.8 91 0.8 ESE 9 11 5 6 1020.4 1017.6 1.4
20/05:00am 12.8 11.5 11.4 91 0.8 ESE 9 11 5 6 1020.3 1017.5 1.4
20/04:30am 13.6 12.2 12.3 92 0.7 SE 11 13 6 7 1020.2 1017.4 1.4
20/04:00am 13.7 12.4 12.4 92 0.7 SE 11 15 6 8 1020.2 1017.4 1.4
20/03:30am 13.9 12.6 12.6 92 0.7 ESE 11 15 6 8 1020.0 1017.2 1.4
20/03:00am 13.7 12.7 12.4 92 0.7 ESE 9 11 5 6 1020.3 1017.5 1.4
20/02:30am 13.8 12.5 12.5 92 0.7 ESE 11 15 6 8 1020.5 1017.7 1.4
20/02:00am 14.1 13.0 13.0 93 0.6 ESE 11 15 6 8 1020.8 1018.0 1.4
20/01:30am 14.1 12.6 13.0 93 0.6 ESE 13 17 7 9 1021.0 1018.3 1.4
20/01:00am 14.0 12.1 12.9 93 0.6 ESE 15 20 8 11 1021.4 1018.6 1.4
20/12:30am 13.8 12.2 12.7 93 0.6 ESE 13 15 7 8 1021.8 1019.1 1.4
20/12:18am 13.5 12.2 12.4 93 0.6 ESE 11 13 6 7 1021.8 1019.1 1.4
20/12:00am 13.5 12.5 12.2 92 0.7 SE 9 13 5 7 1022.0 1019.3 1.4
 
Date/Time
EDT
Temp
°C
App
Temp
°C
Dew
Point
°C
Rel
Hum
%
Delta-T
°C
Wind Press
QNH
hPa
Press
MSL
hPa
Rain since
9am
mm
Dir  Spd
km/h
Gust
km/h
Spd
kts
Gust
kts
19/11:55pm 13.4 12.3 12.1 92 0.7 SE 9 13 5 7 1022.0 1019.3 1.4
19/11:30pm 13.9 12.7 12.8 93 0.6 ESE 11 15 6 8 1022.3 1019.5 1.4
19/11:00pm 14.1 12.5 12.8 92 0.7 ESE 13 15 7 8 1022.3 1019.5 1.4
19/10:58pm 14.1 12.5 12.8 92 0.8 ESE 13 15 7 8 1022.3 1019.5 1.4
19/10:30pm 14.1 12.5 12.8 92 0.8 SE 13 17 7 9 1022.3 1019.5 1.4
19/10:00pm 13.4 12.0 12.1 92 0.7 SE 11 13 6 7 1022.3 1019.5 1.4
19/09:30pm 13.3 11.7 11.7 90 0.9 SSE 11 13 6 7 1022.2 1019.4 1.2
19/09:00pm 14.1 12.8 12.5 90 0.9 SE 11 13 6 7 1021.8 1019.1 1.2
19/08:30pm 14.2 12.4 12.1 87 1.2 SE 13 17 7 9 1021.6 1018.8 1.2
19/08:00pm 14.3 13.7 12.3 88 1.1 ESE 7 13 4 7 1021.0 1018.3 1.2
19/07:30pm 15.3 14.6 13.3 88 1.2 E 9 11 5 6 1020.7 1017.9 1.2
19/07:00pm 16.2 15.0 13.9 86 1.4 E 13 19 7 10 1020.5 1017.7 1.2
19/06:30pm 16.7 13.5 13.0 79 2.2 ESE 22 28 12 15 1020.7 1017.9 0.2
19/06:00pm 18.7 15.5 13.1 70 3.3 E 22 28 12 15 1020.0 1017.2 0.0
19/05:30pm 22.2 19.8 11.3 50 6.4 SW 15 20 8 11 1019.8 1017.0 0.0
19/05:00pm 22.4 19.8 12.1 52 6.1 SW 17 24 9 13 1019.4 1016.6 0.0
19/04:30pm 22.5 19.2 11.6 50 6.4 SW 20 26 11 14 1019.3 1016.5 0.0
19/04:00pm 21.9 19.0 12.2 54 5.7 SW 19 26 10 14 1019.4 1016.6 0.0
19/03:30pm 22.9 20.6 14.7 60 5.1 W 20 24 11 13 1019.6 1016.8 0.0
19/03:00pm 21.0 18.1 12.2 57 5.2 WSW 19 26 10 14 1019.7 1016.9 0.0
19/02:30pm 22.3 20.0 14.7 62 4.7 W 20 32 11 17 1020.0 1017.2 0.0
19/02:00pm 22.5 19.8 13.6 57 5.4 W 20 28 11 15 1020.4 1017.6 0.0
19/01:30pm 21.4 18.8 13.3 60 4.9 WSW 19 24 10 13 1020.8 1018.0 0.0
19/01:00pm 20.6 18.2 12.8 61 4.6 W 17 24 9 13 1021.2 1018.4 0.0
19/12:30pm 21.7 20.8 13.6 60 4.9 WSW 11 17 6 9 1021.6 1018.8 0.0
19/12:00pm 21.1 21.0 13.8 63 4.4 NNW 7 15 4 8 1022.0 1019.3 0.0
19/11:30am 20.2 20.1 13.9 67 3.8 NW 7 15 4 8 1022.5 1019.7 0.0
19/11:00am 18.7 18.3 13.1 70 3.3 WSW 7 13 4 7 1022.9 1020.2 0.0
19/10:38am 18.0 17.4 12.2 69 3.4 NW 7 11 4 6 1023.0 1020.3 0.0
19/10:30am 17.9 17.5 13.0 73 2.9 N 7 11 4 6 1023.0 1020.3 0.0
19/10:00am 17.0 16.5 12.5 75 2.6 NW 7 9 4 5 1023.4 1020.6 0.0
19/09:30am 16.3 15.9 13.0 81 1.9 SSE 7 13 4 7 1023.6 1020.9 0.0
19/09:00am 14.7 13.8 12.6 87 1.2 E 9 13 5 7 1023.6 1020.9 2.6
19/08:30am 14.1 13.0 12.0 87 1.2 ESE 9 13 5 7 1023.5 1020.7 2.6
19/08:00am 14.0 12.5 12.0 88 1.1 E 11 15 6 8 1023.1 1020.4 2.6
19/07:30am 13.3 11.8 11.9 91 0.8 E 11 15 6 8 1023.0 1020.3 2.6
19/07:00am 13.3 11.4 11.9 91 0.8 E 13 15 7 8 1022.8 1020.1 2.6
19/06:30am 12.9 11.3 11.5 91 0.8 ESE 11 15 6 8 1022.5 1019.7 2.6
19/06:00am 12.7 10.7 11.4 92 0.7 ESE 13 15 7 8 1022.2 1019.4 2.6
19/05:30am 12.7 11.4 11.4 92 0.7 SE 9 11 5 6 1022.3 1019.5 2.6
19/05:00am 12.6 10.2 11.3 92 0.7 ENE 15 19 8 10 1021.5 1018.7 2.6
19/04:50am 12.9 10.2 11.6 92 0.7 ENE 17 22 9 12 1021.5 1018.7 2.6
19/04:30am 13.0 10.7 11.9 93 0.6 E 15 20 8 11 1021.3 1018.5 2.6
19/04:28am 13.0 10.4 11.9 93 0.6 E 17 20 9 11 1021.3 1018.5 2.6
19/04:00am 13.0 11.1 11.9 93 0.6 ESE 13 17 7 9 1021.4 1018.6 2.6
19/03:57am 13.0 11.1 11.9 93 0.6 ESE 13 17 7 9 1021.4 1018.6 2.6
19/03:30am 13.3 11.1 12.2 93 0.6 ESE 15 17 8 9 1021.4 1018.6 2.6
19/03:00am 13.6 11.9 12.3 92 0.7 SE 13 17 7 9 1021.8 1019.1 2.6
19/02:30am 13.4 12.3 12.1 92 0.7 ESE 9 11 5 6 1021.9 1019.2 2.6
19/02:00am 13.6 11.4 12.0 90 0.9 E 15 19 8 10 1022.2 1019.4 2.6
19/01:30am 14.0 12.4 12.7 92 0.7 ESE 13 17 7 9 1022.0 1019.3 2.6
19/01:15am 14.2 12.6 12.9 92 0.8 ESE 13 17 7 9 1022.3 1019.5 2.6
19/01:00am 14.2 12.6 12.8 91 0.8 ESE 13 19 7 10 1022.4 1019.6 2.6
19/12:30am 14.1 11.7 12.7 91 0.8 ESE 17 20 9 11 1022.6 1019.8 2.6
19/12:00am 14.3 11.6 13.0 92 0.8 ESE 19 24 10 13 1022.9 1020.2 2.6
 
Date/Time
EDT
Temp
°C
App
Temp
°C
Dew
Point
°C
Rel
Hum
%
Delta-T
°C
Wind Press
QNH
hPa
Press
MSL
hPa
Rain since
9am
mm
Dir  Spd
km/h
Gust
km/h
Spd
kts
Gust
kts
18/11:55pm 14.3 12.1 13.2 93 0.6 ESE 17 24 9 13 1022.9 1020.2 2.6
18/11:31pm 14.0 12.1 12.9 93 0.6 ESE 15 20 8 11 1022.9 1020.2 2.6
18/11:30pm 14.0 12.1 12.9 93 0.6 ESE 15 20 8 11 1022.9 1020.2 2.6
18/11:29pm 14.0 12.1 12.9 93 0.6 ESE 15 20 8 11 1022.9 1020.2 2.6
18/11:00pm 14.0 11.2 12.7 92 0.7 ESE 19 26 10 14 1022.7 1020.0 2.6
18/10:40pm 13.6 11.4 12.2 91 0.8 ESE 15 19 8 10 1023.0 1020.3 2.6
18/10:30pm 13.9 11.4 12.3 90 0.9 ESE 17 22 9 12 1023.0 1020.3 2.6
18/10:00pm 14.3 12.4 13.0 92 0.8 ESE 15 20 8 11 1023.1 1020.4 2.6
18/09:59pm 14.2 12.6 12.9 92 0.8 ESE 13 20 7 11 1023.1 1020.4 2.6
18/09:30pm 14.0 12.3 12.4 90 0.9 E 13 17 7 9 1022.9 1020.2 2.6
18/09:00pm 14.2 12.1 12.4 89 1.0 ESE 15 17 8 9 1022.8 1020.1 2.6
18/08:30pm 14.6 12.9 12.6 88 1.2 E 13 19 7 10 1022.7 1020.0 2.6
18/08:00pm 15.1 12.2 13.0 87 1.2 E 20 26 11 14 1022.2 1019.4 2.6
18/07:30pm 15.9 13.3 13.2 84 1.6 E 19 26 10 14 1021.6 1018.8 2.6
18/07:00pm 16.3 15.7 13.6 84 1.6 ENE 9 11 5 6 1021.3 1018.5 2.6
18/06:30pm 16.4 15.8 13.5 83 1.7 NE 9 11 5 6 1020.8 1018.0 2.6
18/06:00pm 16.6 15.6 13.3 81 1.9 ENE 11 13 6 7 1020.6 1017.8 2.6
18/05:30pm 16.8 16.2 13.5 81 2.0 ESE 9 13 5 7 1020.5 1017.7 2.6
18/05:00pm 16.7 15.9 14.0 84 1.6 SE 11 13 6 7 1020.4 1017.6 2.6
18/04:30pm 16.3 16.2 13.4 83 1.7 S 6 9 3 5 1020.4 1017.6 2.2
18/04:00pm 16.6 15.9 13.1 80 2.1 SW 9 17 5 9 1020.3 1017.5 2.0
18/03:30pm 17.5 16.9 13.6 78 2.3 E 9 19 5 10 1020.4 1017.6 2.0
18/03:00pm 18.5 17.4 12.0 66 3.8 NE 9 15 5 8 1020.3 1017.5 2.0
18/02:30pm 18.5 17.7 12.9 70 3.3 NNE 9 17 5 9 1020.4 1017.6 2.0
18/02:00pm 17.1 16.1 13.4 79 2.2 NNW 11 15 6 8 1020.8 1018.0 2.0
18/01:30pm 17.1 15.6 13.0 77 2.4 NNW 13 20 7 11 1020.8 1018.0 1.4
18/01:00pm 17.9 17.2 13.2 74 2.8 SSW 9 13 5 7 1021.0 1018.3 1.4
18/12:30pm 17.9 17.6 13.2 74 2.8 SW 7 17 4 9 1021.0 1018.3 1.2
18/12:00pm 19.2 17.1 11.3 60 4.5 NNE 13 24 7 13 1021.4 1018.6 0.0
18/11:30am 19.5 17.4 12.3 63 4.2 NE 15 20 8 11 1021.7 1018.9 0.0
18/11:00am 19.0 17.2 12.0 64 4.1 NE 13 17 7 9 1021.9 1019.2 0.0
18/10:30am 18.2 16.6 12.9 71 3.1 NE 13 22 7 12 1022.0 1019.3 0.0
18/10:00am 17.6 14.6 11.9 69 3.3 NE 19 28 10 15 1022.2 1019.4 0.0
18/09:30am 16.9 15.7 12.8 77 2.4 NNE 11 17 6 9 1022.3 1019.5 0.0
18/09:12am 16.3 15.4 12.7 79 2.1 NNE 9 15 5 8 1022.3 1019.5 0.0
18/09:00am 15.9 15.0 12.5 80 2.0 NE 9 13 5 7 1022.2 1019.4 6.0
18/08:30am 15.3 13.9 12.2 82 1.8 ENE 11 15 6 8 1021.9 1019.2 6.0
18/08:00am 14.6 13.3 12.5 87 1.2 ESE 11 13 6 7 1021.7 1018.9 6.0
18/07:30am 14.0 12.7 12.4 90 0.9 ESE 11 13 6 7 1021.3 1018.5 6.0
18/07:03am 13.7 12.3 12.1 90 0.9 ESE 11 13 6 7 1020.8 1018.0 6.0
18/07:00am 13.6 12.1 12.0 90 0.9 ESE 11 13 6 7 1020.8 1018.0 6.0
18/06:37am 13.6 12.2 12.2 91 0.8 E 11 13 6 7 1020.6 1017.8 6.0
18/06:30am 13.5 11.7 12.1 91 0.8 E 13 15 7 8 1020.5 1017.7 6.0

Other Formats:

Comma delimited format used in spreadsheet applications
http://www.bom.gov.au/fwo/IDN60801/IDN60801.94588.axf

JavaScript Object Notation format (JSON) in row-major order
http://www.bom.gov.au/fwo/IDN60801/IDN60801.94588.json